sensor_id;sensor_type;location;lat;lon;timestamp;P1;durP1;ratioP1;P2;durP2;ratioP2
37407;SDS011;24866;50.248;8.252;2022-08-14T00:01:47;6.35;;;4.57;;
37407;SDS011;24866;50.248;8.252;2022-08-14T00:04:18;4.82;;;4.15;;
37407;SDS011;24866;50.248;8.252;2022-08-14T00:06:48;6.00;;;4.20;;
37407;SDS011;24866;50.248;8.252;2022-08-14T00:09:18;6.80;;;4.38;;
37407;SDS011;24866;50.248;8.252;2022-08-14T00:11:48;8.98;;;5.32;;
37407;SDS011;24866;50.248;8.252;2022-08-14T00:14:18;5.88;;;3.90;;
37407;SDS011;24866;50.248;8.252;2022-08-14T00:16:48;7.05;;;4.38;;
37407;SDS011;24866;50.248;8.252;2022-08-14T00:19:21;5.38;;;4.43;;
37407;SDS011;24866;50.248;8.252;2022-08-14T00:21:51;7.25;;;4.82;;
37407;SDS011;24866;50.248;8.252;2022-08-14T00:24:21;5.88;;;3.97;;
37407;SDS011;24866;50.248;8.252;2022-08-14T00:26:51;6.15;;;4.10;;
37407;SDS011;24866;50.248;8.252;2022-08-14T00:29:21;5.80;;;4.05;;
37407;SDS011;24866;50.248;8.252;2022-08-14T00:31:51;4.82;;;4.20;;
37407;SDS011;24866;50.248;8.252;2022-08-14T00:34:22;7.00;;;4.57;;
37407;SDS011;24866;50.248;8.252;2022-08-14T00:36:52;5.47;;;4.15;;
37407;SDS011;24866;50.248;8.252;2022-08-14T00:39:23;7.22;;;4.40;;
37407;SDS011;24866;50.248;8.252;2022-08-14T00:41:52;5.13;;;4.03;;
37407;SDS011;24866;50.248;8.252;2022-08-14T00:44:22;5.28;;;3.90;;
37407;SDS011;24866;50.248;8.252;2022-08-14T00:46:52;6.15;;;4.20;;
37407;SDS011;24866;50.248;8.252;2022-08-14T00:49:24;6.95;;;4.78;;
37407;SDS011;24866;50.248;8.252;2022-08-14T00:51:55;4.95;;;3.75;;
37407;SDS011;24866;50.248;8.252;2022-08-14T00:54:27;6.35;;;4.55;;
37407;SDS011;24866;50.248;8.252;2022-08-14T00:56:58;5.40;;;4.72;;
37407;SDS011;24866;50.248;8.252;2022-08-14T00:59:28;4.80;;;4.22;;
37407;SDS011;24866;50.248;8.252;2022-08-14T01:01:59;6.28;;;4.07;;
37407;SDS011;24866;50.248;8.252;2022-08-14T01:04:33;6.43;;;5.03;;
37407;SDS011;24866;50.248;8.252;2022-08-14T01:07:03;6.75;;;4.72;;
37407;SDS011;24866;50.248;8.252;2022-08-14T01:09:34;4.93;;;4.38;;
37407;SDS011;24866;50.248;8.252;2022-08-14T01:12:05;5.95;;;4.25;;
37407;SDS011;24866;50.248;8.252;2022-08-14T01:14:36;5.18;;;4.00;;
37407;SDS011;24866;50.248;8.252;2022-08-14T01:17:06;6.43;;;5.10;;
37407;SDS011;24866;50.248;8.252;2022-08-14T01:19:37;4.50;;;4.10;;
37407;SDS011;24866;50.248;8.252;2022-08-14T01:22:26;5.38;;;4.20;;
37407;SDS011;24866;50.248;8.252;2022-08-14T01:24:56;7.13;;;5.05;;
37407;SDS011;24866;50.248;8.252;2022-08-14T01:27:26;4.57;;;4.18;;
37407;SDS011;24866;50.248;8.252;2022-08-14T01:29:57;6.20;;;4.10;;
37407;SDS011;24866;50.248;8.252;2022-08-14T01:32:27;6.35;;;4.95;;
37407;SDS011;24866;50.248;8.252;2022-08-14T01:34:57;10.18;;;5.20;;
37407;SDS011;24866;50.248;8.252;2022-08-14T01:37:28;6.10;;;4.28;;
37407;SDS011;24866;50.248;8.252;2022-08-14T01:39:58;8.60;;;5.10;;
37407;SDS011;24866;50.248;8.252;2022-08-14T01:42:28;6.32;;;4.40;;
37407;SDS011;24866;50.248;8.252;2022-08-14T01:44:58;6.00;;;4.82;;
37407;SDS011;24866;50.248;8.252;2022-08-14T01:47:28;6.30;;;4.45;;
37407;SDS011;24866;50.248;8.252;2022-08-14T01:49:59;5.57;;;4.88;;
37407;SDS011;24866;50.248;8.252;2022-08-14T01:52:31;5.50;;;4.32;;
37407;SDS011;24866;50.248;8.252;2022-08-14T01:55:04;5.38;;;4.60;;
37407;SDS011;24866;50.248;8.252;2022-08-14T01:57:36;5.47;;;4.40;;
37407;SDS011;24866;50.248;8.252;2022-08-14T02:00:06;5.80;;;4.30;;
37407;SDS011;24866;50.248;8.252;2022-08-14T02:02:36;5.18;;;3.65;;
37407;SDS011;24866;50.248;8.252;2022-08-14T02:05:07;5.90;;;4.55;;
37407;SDS011;24866;50.248;8.252;2022-08-14T02:07:41;4.78;;;4.20;;
37407;SDS011;24866;50.248;8.252;2022-08-14T02:10:12;4.40;;;3.90;;
37407;SDS011;24866;50.248;8.252;2022-08-14T02:12:44;4.72;;;4.22;;
37407;SDS011;24866;50.248;8.252;2022-08-14T02:15:15;4.80;;;4.22;;
37407;SDS011;24866;50.248;8.252;2022-08-14T02:17:49;4.38;;;3.97;;
37407;SDS011;24866;50.248;8.252;2022-08-14T02:20:19;5.50;;;4.78;;
37407;SDS011;24866;50.248;8.252;2022-08-14T02:22:50;6.18;;;4.70;;
37407;SDS011;24866;50.248;8.252;2022-08-14T02:25:21;6.00;;;4.75;;
37407;SDS011;24866;50.248;8.252;2022-08-14T02:27:51;5.78;;;4.70;;
37407;SDS011;24866;50.248;8.252;2022-08-14T02:30:23;5.32;;;4.30;;
37407;SDS011;24866;50.248;8.252;2022-08-14T02:32:54;5.43;;;4.22;;
37407;SDS011;24866;50.248;8.252;2022-08-14T02:35:24;5.13;;;4.63;;
37407;SDS011;24866;50.248;8.252;2022-08-14T02:37:55;6.20;;;5.60;;
37407;SDS011;24866;50.248;8.252;2022-08-14T02:40:25;5.82;;;5.07;;
37407;SDS011;24866;50.248;8.252;2022-08-14T02:42:58;6.43;;;5.25;;
37407;SDS011;24866;50.248;8.252;2022-08-14T02:45:29;5.30;;;4.78;;
37407;SDS011;24866;50.248;8.252;2022-08-14T02:48:02;8.43;;;4.90;;
37407;SDS011;24866;50.248;8.252;2022-08-14T02:50:34;7.20;;;4.88;;
37407;SDS011;24866;50.248;8.252;2022-08-14T02:53:07;5.07;;;4.20;;
37407;SDS011;24866;50.248;8.252;2022-08-14T02:55:38;5.75;;;4.80;;
37407;SDS011;24866;50.248;8.252;2022-08-14T02:58:09;6.20;;;4.45;;
37407;SDS011;24866;50.248;8.252;2022-08-14T03:00:39;9.30;;;5.10;;
37407;SDS011;24866;50.248;8.252;2022-08-14T03:03:10;6.82;;;5.43;;
37407;SDS011;24866;50.248;8.252;2022-08-14T03:05:40;7.30;;;5.50;;
37407;SDS011;24866;50.248;8.252;2022-08-14T03:08:12;7.40;;;4.75;;
37407;SDS011;24866;50.248;8.252;2022-08-14T03:10:42;8.63;;;5.55;;
37407;SDS011;24866;50.248;8.252;2022-08-14T03:13:12;5.80;;;5.03;;
37407;SDS011;24866;50.248;8.252;2022-08-14T03:15:42;7.07;;;5.03;;
37407;SDS011;24866;50.248;8.252;2022-08-14T03:18:14;7.33;;;5.23;;
37407;SDS011;24866;50.248;8.252;2022-08-14T03:20:44;5.72;;;5.13;;
37407;SDS011;24866;50.248;8.252;2022-08-14T03:23:16;6.30;;;5.10;;
37407;SDS011;24866;50.248;8.252;2022-08-14T03:25:46;7.32;;;5.30;;
37407;SDS011;24866;50.248;8.252;2022-08-14T03:28:16;7.30;;;5.38;;
37407;SDS011;24866;50.248;8.252;2022-08-14T03:30:46;6.35;;;5.45;;
37407;SDS011;24866;50.248;8.252;2022-08-14T03:33:16;6.63;;;5.35;;
37407;SDS011;24866;50.248;8.252;2022-08-14T03:35:46;6.82;;;5.07;;
37407;SDS011;24866;50.248;8.252;2022-08-14T03:38:18;8.85;;;5.60;;
37407;SDS011;24866;50.248;8.252;2022-08-14T03:40:48;7.13;;;5.03;;
37407;SDS011;24866;50.248;8.252;2022-08-14T03:43:18;7.03;;;5.55;;
37407;SDS011;24866;50.248;8.252;2022-08-14T03:45:48;6.50;;;5.78;;
37407;SDS011;24866;50.248;8.252;2022-08-14T03:48:18;7.85;;;5.63;;
37407;SDS011;24866;50.248;8.252;2022-08-14T03:50:48;9.07;;;5.63;;
37407;SDS011;24866;50.248;8.252;2022-08-14T03:53:21;7.10;;;5.97;;
37407;SDS011;24866;50.248;8.252;2022-08-14T03:55:51;6.95;;;5.88;;
37407;SDS011;24866;50.248;8.252;2022-08-14T03:58:24;6.82;;;5.93;;
37407;SDS011;24866;50.248;8.252;2022-08-14T04:00:54;7.07;;;5.60;;
37407;SDS011;24866;50.248;8.252;2022-08-14T04:03:24;7.10;;;6.40;;
37407;SDS011;24866;50.248;8.252;2022-08-14T04:05:54;9.80;;;6.30;;
37407;SDS011;24866;50.248;8.252;2022-08-14T04:08:25;9.77;;;6.00;;
37407;SDS011;24866;50.248;8.252;2022-08-14T04:10:56;9.35;;;7.43;;
37407;SDS011;24866;50.248;8.252;2022-08-14T04:13:26;12.85;;;7.72;;
37407;SDS011;24866;50.248;8.252;2022-08-14T04:15:57;8.18;;;6.40;;
37407;SDS011;24866;50.248;8.252;2022-08-14T04:18:27;7.88;;;6.10;;
37407;SDS011;24866;50.248;8.252;2022-08-14T04:20:59;8.37;;;6.80;;
37407;SDS011;24866;50.248;8.252;2022-08-14T04:23:31;10.05;;;6.18;;
37407;SDS011;24866;50.248;8.252;2022-08-14T04:26:02;6.93;;;5.68;;
37407;SDS011;24866;50.248;8.252;2022-08-14T04:28:36;8.48;;;6.45;;
37407;SDS011;24866;50.248;8.252;2022-08-14T04:31:07;8.32;;;6.13;;
37407;SDS011;24866;50.248;8.252;2022-08-14T04:33:38;11.35;;;6.80;;
37407;SDS011;24866;50.248;8.252;2022-08-14T04:36:08;8.00;;;6.35;;
37407;SDS011;24866;50.248;8.252;2022-08-14T04:38:39;7.35;;;6.13;;
37407;SDS011;24866;50.248;8.252;2022-08-14T04:41:27;7.70;;;6.13;;
37407;SDS011;24866;50.248;8.252;2022-08-14T04:44:14;8.32;;;6.45;;
37407;SDS011;24866;50.248;8.252;2022-08-14T04:46:44;7.40;;;6.28;;
37407;SDS011;24866;50.248;8.252;2022-08-14T04:49:29;8.77;;;6.55;;
37407;SDS011;24866;50.248;8.252;2022-08-14T04:51:59;8.98;;;6.47;;
37407;SDS011;24866;50.248;8.252;2022-08-14T04:54:33;8.15;;;6.70;;
37407;SDS011;24866;50.248;8.252;2022-08-14T04:57:03;8.98;;;6.18;;
37407;SDS011;24866;50.248;8.252;2022-08-14T04:59:33;7.50;;;5.82;;
37407;SDS011;24866;50.248;8.252;2022-08-14T05:02:04;9.15;;;7.20;;
37407;SDS011;24866;50.248;8.252;2022-08-14T05:04:35;7.70;;;5.60;;
37407;SDS011;24866;50.248;8.252;2022-08-14T05:07:05;9.38;;;7.70;;
37407;SDS011;24866;50.248;8.252;2022-08-14T05:09:36;8.60;;;6.93;;
37407;SDS011;24866;50.248;8.252;2022-08-14T05:12:06;10.65;;;7.20;;
37407;SDS011;24866;50.248;8.252;2022-08-14T05:14:37;7.82;;;6.10;;
37407;SDS011;24866;50.248;8.252;2022-08-14T05:17:06;8.88;;;6.93;;
37407;SDS011;24866;50.248;8.252;2022-08-14T05:19:37;7.45;;;6.72;;
37407;SDS011;24866;50.248;8.252;2022-08-14T05:22:07;7.38;;;6.68;;
37407;SDS011;24866;50.248;8.252;2022-08-14T05:24:38;7.97;;;7.13;;
37407;SDS011;24866;50.248;8.252;2022-08-14T05:27:08;10.70;;;6.57;;
37407;SDS011;24866;50.248;8.252;2022-08-14T05:29:38;8.85;;;6.97;;
37407;SDS011;24866;50.248;8.252;2022-08-14T05:32:11;8.45;;;7.05;;
37407;SDS011;24866;50.248;8.252;2022-08-14T05:34:42;7.70;;;6.50;;
37407;SDS011;24866;50.248;8.252;2022-08-14T05:37:12;7.93;;;6.82;;
37407;SDS011;24866;50.248;8.252;2022-08-14T05:39:43;8.32;;;7.20;;
37407;SDS011;24866;50.248;8.252;2022-08-14T05:42:13;9.10;;;6.88;;
37407;SDS011;24866;50.248;8.252;2022-08-14T05:44:44;9.27;;;6.90;;
37407;SDS011;24866;50.248;8.252;2022-08-14T05:47:13;7.38;;;6.60;;
37407;SDS011;24866;50.248;8.252;2022-08-14T05:49:43;7.35;;;6.65;;
37407;SDS011;24866;50.248;8.252;2022-08-14T05:52:15;7.97;;;6.60;;
37407;SDS011;24866;50.248;8.252;2022-08-14T05:54:46;8.27;;;7.20;;
37407;SDS011;24866;50.248;8.252;2022-08-14T05:57:16;8.48;;;7.63;;
37407;SDS011;24866;50.248;8.252;2022-08-14T05:59:46;8.52;;;7.70;;
37407;SDS011;24866;50.248;8.252;2022-08-14T06:02:16;9.48;;;8.57;;
37407;SDS011;24866;50.248;8.252;2022-08-14T06:04:46;11.30;;;8.55;;
37407;SDS011;24866;50.248;8.252;2022-08-14T06:07:16;9.60;;;8.07;;
37407;SDS011;24866;50.248;8.252;2022-08-14T06:09:47;9.48;;;8.57;;
37407;SDS011;24866;50.248;8.252;2022-08-14T06:12:17;9.68;;;8.68;;
37407;SDS011;24866;50.248;8.252;2022-08-14T06:14:47;9.90;;;8.90;;
37407;SDS011;24866;50.248;8.252;2022-08-14T06:17:17;13.55;;;9.10;;
37407;SDS011;24866;50.248;8.252;2022-08-14T06:19:47;10.02;;;9.02;;
37407;SDS011;24866;50.248;8.252;2022-08-14T06:22:16;10.88;;;9.55;;
37407;SDS011;24866;50.248;8.252;2022-08-14T06:24:48;10.60;;;9.18;;
37407;SDS011;24866;50.248;8.252;2022-08-14T06:27:18;10.23;;;8.73;;
37407;SDS011;24866;50.248;8.252;2022-08-14T06:29:47;9.93;;;8.95;;
37407;SDS011;24866;50.248;8.252;2022-08-14T06:32:17;9.18;;;8.20;;
37407;SDS011;24866;50.248;8.252;2022-08-14T06:34:47;9.25;;;7.85;;
37407;SDS011;24866;50.248;8.252;2022-08-14T06:37:17;11.00;;;9.07;;
37407;SDS011;24866;50.248;8.252;2022-08-14T06:39:49;10.27;;;9.02;;
37407;SDS011;24866;50.248;8.252;2022-08-14T06:42:19;9.48;;;8.48;;
37407;SDS011;24866;50.248;8.252;2022-08-14T06:44:48;9.23;;;8.35;;
37407;SDS011;24866;50.248;8.252;2022-08-14T06:47:18;9.00;;;8.10;;
37407;SDS011;24866;50.248;8.252;2022-08-14T06:49:48;10.02;;;8.93;;
37407;SDS011;24866;50.248;8.252;2022-08-14T06:52:18;9.02;;;7.90;;
37407;SDS011;24866;50.248;8.252;2022-08-14T06:54:50;10.25;;;9.23;;
37407;SDS011;24866;50.248;8.252;2022-08-14T06:57:20;11.15;;;9.82;;
37407;SDS011;24866;50.248;8.252;2022-08-14T06:59:49;11.15;;;9.63;;
37407;SDS011;24866;50.248;8.252;2022-08-14T07:02:19;12.68;;;8.57;;
37407;SDS011;24866;50.248;8.252;2022-08-14T07:05:07;10.57;;;9.57;;
37407;SDS011;24866;50.248;8.252;2022-08-14T07:07:54;10.48;;;9.20;;
37407;SDS011;24866;50.248;8.252;2022-08-14T07:10:26;9.43;;;8.52;;
37407;SDS011;24866;50.248;8.252;2022-08-14T07:12:56;16.00;;;8.98;;
37407;SDS011;24866;50.248;8.252;2022-08-14T07:15:26;8.60;;;7.70;;
37407;SDS011;24866;50.248;8.252;2022-08-14T07:17:56;10.45;;;7.88;;
37407;SDS011;24866;50.248;8.252;2022-08-14T07:20:26;10.32;;;9.13;;
37407;SDS011;24866;50.248;8.252;2022-08-14T07:22:57;10.43;;;9.32;;
37407;SDS011;24866;50.248;8.252;2022-08-14T07:25:28;8.95;;;8.05;;
37407;SDS011;24866;50.248;8.252;2022-08-14T07:27:59;9.85;;;8.85;;
37407;SDS011;24866;50.248;8.252;2022-08-14T07:30:29;11.00;;;8.90;;
37407;SDS011;24866;50.248;8.252;2022-08-14T07:32:59;9.00;;;8.10;;
37407;SDS011;24866;50.248;8.252;2022-08-14T07:35:29;9.27;;;8.32;;
37407;SDS011;24866;50.248;8.252;2022-08-14T07:37:59;10.30;;;9.07;;
37407;SDS011;24866;50.248;8.252;2022-08-14T07:40:31;9.82;;;8.80;;
37407;SDS011;24866;50.248;8.252;2022-08-14T07:43:01;8.93;;;7.80;;
37407;SDS011;24866;50.248;8.252;2022-08-14T07:45:31;10.32;;;8.60;;
37407;SDS011;24866;50.248;8.252;2022-08-14T07:48:01;8.38;;;7.57;;
37407;SDS011;24866;50.248;8.252;2022-08-14T07:50:33;8.85;;;8.05;;
37407;SDS011;24866;50.248;8.252;2022-08-14T07:53:04;10.57;;;8.30;;
37407;SDS011;24866;50.248;8.252;2022-08-14T07:55:36;9.35;;;7.65;;
37407;SDS011;24866;50.248;8.252;2022-08-14T07:58:06;8.73;;;7.70;;
37407;SDS011;24866;50.248;8.252;2022-08-14T08:00:35;9.68;;;8.77;;
37407;SDS011;24866;50.248;8.252;2022-08-14T08:03:06;8.88;;;8.07;;
37407;SDS011;24866;50.248;8.252;2022-08-14T08:05:38;7.83;;;7.03;;
37407;SDS011;24866;50.248;8.252;2022-08-14T08:08:09;9.85;;;8.02;;
37407;SDS011;24866;50.248;8.252;2022-08-14T08:10:41;9.45;;;8.05;;
37407;SDS011;24866;50.248;8.252;2022-08-14T08:15:44;9.05;;;7.90;;
37407;SDS011;24866;50.248;8.252;2022-08-14T08:18:16;8.93;;;8.03;;
37407;SDS011;24866;50.248;8.252;2022-08-14T08:20:47;8.93;;;7.68;;
37407;SDS011;24866;50.248;8.252;2022-08-14T08:23:19;9.40;;;7.32;;
37407;SDS011;24866;50.248;8.252;2022-08-14T08:25:52;10.32;;;6.68;;
37407;SDS011;24866;50.248;8.252;2022-08-14T08:28:22;7.53;;;6.72;;
37407;SDS011;24866;50.248;8.252;2022-08-14T08:30:55;8.30;;;6.47;;
37407;SDS011;24866;50.248;8.252;2022-08-14T08:33:29;9.45;;;7.20;;
37407;SDS011;24866;50.248;8.252;2022-08-14T08:36:00;7.95;;;6.85;;
37407;SDS011;24866;50.248;8.252;2022-08-14T08:38:33;7.53;;;6.82;;
37407;SDS011;24866;50.248;8.252;2022-08-14T08:41:04;10.13;;;9.15;;
37407;SDS011;24866;50.248;8.252;2022-08-14T08:43:35;10.25;;;6.85;;
37407;SDS011;24866;50.248;8.252;2022-08-14T08:46:05;8.77;;;7.97;;
37407;SDS011;24866;50.248;8.252;2022-08-14T08:48:43;10.60;;;7.93;;
37407;SDS011;24866;50.248;8.252;2022-08-14T08:51:24;9.95;;;7.20;;
37407;SDS011;24866;50.248;8.252;2022-08-14T08:53:56;9.02;;;8.10;;
37407;SDS011;24866;50.248;8.252;2022-08-14T08:56:39;9.88;;;8.90;;
37407;SDS011;24866;50.248;8.252;2022-08-14T08:59:19;9.23;;;7.60;;
37407;SDS011;24866;50.248;8.252;2022-08-14T09:01:53;9.38;;;8.00;;
37407;SDS011;24866;50.248;8.252;2022-08-14T09:04:26;8.18;;;7.28;;
37407;SDS011;24866;50.248;8.252;2022-08-14T09:06:57;7.95;;;7.18;;
37407;SDS011;24866;50.248;8.252;2022-08-14T09:09:27;8.85;;;7.05;;
37407;SDS011;24866;50.248;8.252;2022-08-14T09:12:00;9.18;;;6.55;;
37407;SDS011;24866;50.248;8.252;2022-08-14T09:14:34;8.05;;;7.25;;
37407;SDS011;24866;50.248;8.252;2022-08-14T09:17:04;11.32;;;6.80;;
37407;SDS011;24866;50.248;8.252;2022-08-14T09:19:34;7.35;;;6.65;;
37407;SDS011;24866;50.248;8.252;2022-08-14T09:22:05;7.30;;;6.60;;
37407;SDS011;24866;50.248;8.252;2022-08-14T09:24:35;7.72;;;6.72;;
37407;SDS011;24866;50.248;8.252;2022-08-14T09:27:07;7.50;;;6.65;;
37407;SDS011;24866;50.248;8.252;2022-08-14T09:29:38;7.55;;;6.85;;
37407;SDS011;24866;50.248;8.252;2022-08-14T09:32:09;9.10;;;6.95;;
37407;SDS011;24866;50.248;8.252;2022-08-14T09:34:47;6.72;;;6.13;;
37407;SDS011;24866;50.248;8.252;2022-08-14T09:37:33;6.20;;;5.60;;
37407;SDS011;24866;50.248;8.252;2022-08-14T09:40:11;5.68;;;4.95;;
37407;SDS011;24866;50.248;8.252;2022-08-14T09:42:59;7.82;;;6.43;;
37407;SDS011;24866;50.248;8.252;2022-08-14T09:45:35;5.43;;;4.93;;
37407;SDS011;24866;50.248;8.252;2022-08-14T09:48:14;7.60;;;5.63;;
37407;SDS011;24866;50.248;8.252;2022-08-14T09:50:46;5.88;;;4.75;;
37407;SDS011;24866;50.248;8.252;2022-08-14T09:53:28;4.90;;;4.22;;
37407;SDS011;24866;50.248;8.252;2022-08-14T09:56:03;4.82;;;4.32;;
37407;SDS011;24866;50.248;8.252;2022-08-14T09:58:36;4.65;;;3.83;;
37407;SDS011;24866;50.248;8.252;2022-08-14T10:01:08;5.22;;;4.03;;
37407;SDS011;24866;50.248;8.252;2022-08-14T10:06:17;4.40;;;4.00;;
37407;SDS011;24866;50.248;8.252;2022-08-14T10:08:49;5.88;;;4.07;;
37407;SDS011;24866;50.248;8.252;2022-08-14T10:13:53;6.57;;;3.90;;
37407;SDS011;24866;50.248;8.252;2022-08-14T10:16:26;11.27;;;4.82;;
37407;SDS011;24866;50.248;8.252;2022-08-14T10:19:02;4.65;;;4.25;;
37407;SDS011;24866;50.248;8.252;2022-08-14T10:21:33;4.97;;;4.47;;
37407;SDS011;24866;50.248;8.252;2022-08-14T10:24:04;4.60;;;3.95;;
37407;SDS011;24866;50.248;8.252;2022-08-14T10:26:36;4.10;;;3.60;;
37407;SDS011;24866;50.248;8.252;2022-08-14T10:29:09;3.90;;;3.50;;
37407;SDS011;24866;50.248;8.252;2022-08-14T10:31:44;5.43;;;3.58;;
37407;SDS011;24866;50.248;8.252;2022-08-14T10:34:29;4.13;;;3.10;;
37407;SDS011;24866;50.248;8.252;2022-08-14T10:37:01;3.45;;;3.15;;
37407;SDS011;24866;50.248;8.252;2022-08-14T10:39:34;4.78;;;4.38;;
37407;SDS011;24866;50.248;8.252;2022-08-14T10:42:06;8.77;;;4.38;;
37407;SDS011;24866;50.248;8.252;2022-08-14T10:44:40;4.18;;;3.78;;
37407;SDS011;24866;50.248;8.252;2022-08-14T10:47:15;9.00;;;7.95;;
37407;SDS011;24866;50.248;8.252;2022-08-14T10:49:54;31.75;;;27.50;;
37407;SDS011;24866;50.248;8.252;2022-08-14T10:52:26;7.65;;;6.80;;
37407;SDS011;24866;50.248;8.252;2022-08-14T10:55:06;4.40;;;4.00;;
37407;SDS011;24866;50.248;8.252;2022-08-14T10:57:47;6.00;;;3.95;;
37407;SDS011;24866;50.248;8.252;2022-08-14T11:00:21;5.82;;;4.63;;
37407;SDS011;24866;50.248;8.252;2022-08-14T11:02:57;7.40;;;4.47;;
37407;SDS011;24866;50.248;8.252;2022-08-14T11:05:37;6.47;;;4.60;;
37407;SDS011;24866;50.248;8.252;2022-08-14T11:08:09;6.75;;;4.30;;
37407;SDS011;24866;50.248;8.252;2022-08-14T11:10:43;4.30;;;3.90;;
37407;SDS011;24866;50.248;8.252;2022-08-14T11:15:47;5.40;;;4.57;;
37407;SDS011;24866;50.248;8.252;2022-08-14T11:18:17;5.07;;;3.80;;
37407;SDS011;24866;50.248;8.252;2022-08-14T11:20:48;5.53;;;3.97;;
37407;SDS011;24866;50.248;8.252;2022-08-14T11:23:21;6.07;;;4.22;;
37407;SDS011;24866;50.248;8.252;2022-08-14T11:25:55;7.30;;;4.32;;
37407;SDS011;24866;50.248;8.252;2022-08-14T11:28:27;6.75;;;4.53;;
37407;SDS011;24866;50.248;8.252;2022-08-14T11:31:03;4.95;;;4.25;;
37407;SDS011;24866;50.248;8.252;2022-08-14T11:33:35;7.00;;;3.85;;
37407;SDS011;24866;50.248;8.252;2022-08-14T11:36:07;4.13;;;3.72;;
37407;SDS011;24866;50.248;8.252;2022-08-14T11:38:38;5.22;;;4.28;;
37407;SDS011;24866;50.248;8.252;2022-08-14T11:41:10;4.90;;;4.27;;
37407;SDS011;24866;50.248;8.252;2022-08-14T11:43:44;6.28;;;4.80;;
37407;SDS011;24866;50.248;8.252;2022-08-14T11:46:17;5.10;;;4.60;;
37407;SDS011;24866;50.248;8.252;2022-08-14T11:48:51;6.57;;;4.50;;
37407;SDS011;24866;50.248;8.252;2022-08-14T11:51:22;5.07;;;4.53;;
37407;SDS011;24866;50.248;8.252;2022-08-14T11:53:55;6.45;;;4.25;;
37407;SDS011;24866;50.248;8.252;2022-08-14T11:56:32;4.10;;;3.70;;
37407;SDS011;24866;50.248;8.252;2022-08-14T11:59:04;4.65;;;4.25;;
37407;SDS011;24866;50.248;8.252;2022-08-14T12:01:37;5.10;;;4.38;;
37407;SDS011;24866;50.248;8.252;2022-08-14T12:04:08;4.13;;;3.70;;
37407;SDS011;24866;50.248;8.252;2022-08-14T12:06:44;5.20;;;4.07;;
37407;SDS011;24866;50.248;8.252;2022-08-14T12:09:26;6.47;;;4.40;;
37407;SDS011;24866;50.248;8.252;2022-08-14T12:11:57;5.55;;;4.38;;
37407;SDS011;24866;50.248;8.252;2022-08-14T12:14:28;5.10;;;4.47;;
37407;SDS011;24866;50.248;8.252;2022-08-14T12:17:01;7.20;;;4.85;;
37407;SDS011;24866;50.248;8.252;2022-08-14T12:19:41;9.98;;;4.60;;
37407;SDS011;24866;50.248;8.252;2022-08-14T12:22:13;5.05;;;4.30;;
37407;SDS011;24866;50.248;8.252;2022-08-14T12:24:43;4.70;;;4.30;;
37407;SDS011;24866;50.248;8.252;2022-08-14T12:27:13;9.20;;;5.10;;
37407;SDS011;24866;50.248;8.252;2022-08-14T12:29:49;5.40;;;4.47;;
37407;SDS011;24866;50.248;8.252;2022-08-14T12:32:21;6.82;;;4.93;;
37407;SDS011;24866;50.248;8.252;2022-08-14T12:34:52;4.95;;;4.40;;
37407;SDS011;24866;50.248;8.252;2022-08-14T12:37:28;5.47;;;4.97;;
37407;SDS011;24866;50.248;8.252;2022-08-14T12:40:09;5.13;;;4.63;;
37407;SDS011;24866;50.248;8.252;2022-08-14T12:42:40;5.03;;;4.63;;
37407;SDS011;24866;50.248;8.252;2022-08-14T12:45:11;5.43;;;4.93;;
37407;SDS011;24866;50.248;8.252;2022-08-14T12:47:43;5.15;;;4.65;;
37407;SDS011;24866;50.248;8.252;2022-08-14T12:50:13;5.22;;;4.72;;
37407;SDS011;24866;50.248;8.252;2022-08-14T12:52:43;5.95;;;4.30;;
37407;SDS011;24866;50.248;8.252;2022-08-14T12:55:13;6.03;;;4.50;;
37407;SDS011;24866;50.248;8.252;2022-08-14T13:00:16;4.38;;;3.83;;
37407;SDS011;24866;50.248;8.252;2022-08-14T13:05:21;4.90;;;4.38;;
37407;SDS011;24866;50.248;8.252;2022-08-14T13:07:52;6.25;;;4.82;;
37407;SDS011;24866;50.248;8.252;2022-08-14T13:10:22;5.07;;;4.18;;
37407;SDS011;24866;50.248;8.252;2022-08-14T13:12:54;5.53;;;4.55;;
37407;SDS011;24866;50.248;8.252;2022-08-14T13:15:25;4.78;;;4.38;;
37407;SDS011;24866;50.248;8.252;2022-08-14T13:17:56;5.40;;;4.90;;
37407;SDS011;24866;50.248;8.252;2022-08-14T13:20:28;6.07;;;4.68;;
37407;SDS011;24866;50.248;8.252;2022-08-14T13:22:59;5.15;;;4.57;;
37407;SDS011;24866;50.248;8.252;2022-08-14T13:25:29;4.93;;;4.32;;
37407;SDS011;24866;50.248;8.252;2022-08-14T13:28:00;6.82;;;4.97;;
37407;SDS011;24866;50.248;8.252;2022-08-14T13:30:31;5.43;;;4.30;;
37407;SDS011;24866;50.248;8.252;2022-08-14T13:33:03;4.97;;;4.47;;
37407;SDS011;24866;50.248;8.252;2022-08-14T13:35:34;5.20;;;4.23;;
37407;SDS011;24866;50.248;8.252;2022-08-14T13:38:04;8.07;;;4.30;;
37407;SDS011;24866;50.248;8.252;2022-08-14T13:40:34;5.57;;;3.97;;
37407;SDS011;24866;50.248;8.252;2022-08-14T13:43:04;5.07;;;4.57;;
37407;SDS011;24866;50.248;8.252;2022-08-14T13:45:36;4.72;;;4.05;;
37407;SDS011;24866;50.248;8.252;2022-08-14T13:48:07;5.38;;;4.25;;
37407;SDS011;24866;50.248;8.252;2022-08-14T13:50:37;6.30;;;5.05;;
37407;SDS011;24866;50.248;8.252;2022-08-14T13:53:09;5.80;;;4.33;;
37407;SDS011;24866;50.248;8.252;2022-08-14T13:55:42;5.43;;;4.93;;
37407;SDS011;24866;50.248;8.252;2022-08-14T13:58:13;6.73;;;5.30;;
37407;SDS011;24866;50.248;8.252;2022-08-14T14:00:45;7.63;;;5.07;;
37407;SDS011;24866;50.248;8.252;2022-08-14T14:03:22;8.73;;;6.55;;
37407;SDS011;24866;50.248;8.252;2022-08-14T14:05:54;9.38;;;6.28;;
37407;SDS011;24866;50.248;8.252;2022-08-14T14:08:25;6.70;;;5.30;;
37407;SDS011;24866;50.248;8.252;2022-08-14T14:10:56;8.05;;;5.13;;
37407;SDS011;24866;50.248;8.252;2022-08-14T14:13:26;6.13;;;5.00;;
37407;SDS011;24866;50.248;8.252;2022-08-14T14:15:58;5.80;;;5.03;;
37407;SDS011;24866;50.248;8.252;2022-08-14T14:18:33;5.13;;;4.63;;
37407;SDS011;24866;50.248;8.252;2022-08-14T14:21:04;6.13;;;4.68;;
37407;SDS011;24866;50.248;8.252;2022-08-14T14:23:34;4.65;;;4.10;;
37407;SDS011;24866;50.248;8.252;2022-08-14T14:26:06;5.63;;;4.50;;
37407;SDS011;24866;50.248;8.252;2022-08-14T14:28:36;6.32;;;4.63;;
37407;SDS011;24866;50.248;8.252;2022-08-14T14:31:08;5.65;;;4.63;;
37407;SDS011;24866;50.248;8.252;2022-08-14T14:33:42;6.38;;;4.68;;
37407;SDS011;24866;50.248;8.252;2022-08-14T14:36:16;6.75;;;4.22;;
37407;SDS011;24866;50.248;8.252;2022-08-14T14:38:49;4.88;;;4.35;;
37407;SDS011;24866;50.248;8.252;2022-08-14T14:41:21;4.88;;;4.47;;
37407;SDS011;24866;50.248;8.252;2022-08-14T14:43:53;4.88;;;4.28;;
37407;SDS011;24866;50.248;8.252;2022-08-14T14:46:25;7.28;;;4.63;;
37407;SDS011;24866;50.248;8.252;2022-08-14T14:49:02;5.97;;;4.35;;
37407;SDS011;24866;50.248;8.252;2022-08-14T14:51:33;5.05;;;4.38;;
37407;SDS011;24866;50.248;8.252;2022-08-14T14:54:04;5.78;;;5.20;;
37407;SDS011;24866;50.248;8.252;2022-08-14T14:56:35;5.38;;;4.85;;
37407;SDS011;24866;50.248;8.252;2022-08-14T14:59:07;7.13;;;4.75;;
37407;SDS011;24866;50.248;8.252;2022-08-14T15:01:39;5.93;;;5.05;;
37407;SDS011;24866;50.248;8.252;2022-08-14T15:04:17;7.22;;;4.80;;
37407;SDS011;24866;50.248;8.252;2022-08-14T15:06:47;5.63;;;4.73;;
37407;SDS011;24866;50.248;8.252;2022-08-14T15:09:17;4.95;;;4.47;;
37407;SDS011;24866;50.248;8.252;2022-08-14T15:11:47;7.50;;;5.22;;
37407;SDS011;24866;50.248;8.252;2022-08-14T15:14:18;4.97;;;4.53;;
37407;SDS011;24866;50.248;8.252;2022-08-14T15:16:48;6.40;;;5.03;;
37407;SDS011;24866;50.248;8.252;2022-08-14T15:19:19;8.88;;;5.78;;
37407;SDS011;24866;50.248;8.252;2022-08-14T15:21:50;8.07;;;5.70;;
37407;SDS011;24866;50.248;8.252;2022-08-14T15:24:21;7.03;;;6.32;;
37407;SDS011;24866;50.248;8.252;2022-08-14T15:26:51;7.70;;;6.25;;
37407;SDS011;24866;50.248;8.252;2022-08-14T15:29:20;8.73;;;7.18;;